sensor_id;sensor_type;location;lat;lon;timestamp;temperature;humidity
17381;DHT22;8808;52.478;13.378;2023-09-30T00:01:45;20.60;99.90
17381;DHT22;8808;52.478;13.378;2023-09-30T00:04:12;20.60;99.90
17381;DHT22;8808;52.478;13.378;2023-09-30T00:06:39;20.70;99.90
17381;DHT22;8808;52.478;13.378;2023-09-30T00:09:07;21.10;99.90
17381;DHT22;8808;52.478;13.378;2023-09-30T00:11:34;21.60;99.90
17381;DHT22;8808;52.478;13.378;2023-09-30T00:14:01;21.10;99.90
17381;DHT22;8808;52.478;13.378;2023-09-30T00:16:28;21.20;99.90
17381;DHT22;8808;52.478;13.378;2023-09-30T00:18:56;20.80;99.90
17381;DHT22;8808;52.478;13.378;2023-09-30T00:21:23;21.30;99.90
17381;DHT22;8808;52.478;13.378;2023-09-30T00:23:50;21.50;99.90
17381;DHT22;8808;52.478;13.378;2023-09-30T00:26:19;20.00;99.90
17381;DHT22;8808;52.478;13.378;2023-09-30T00:28:46;21.00;99.90
17381;DHT22;8808;52.478;13.378;2023-09-30T00:31:13;22.00;99.90
17381;DHT22;8808;52.478;13.378;2023-09-30T00:33:40;20.10;99.90
17381;DHT22;8808;52.478;13.378;2023-09-30T00:36:08;20.20;99.90
17381;DHT22;8808;52.478;13.378;2023-09-30T00:38:36;19.30;99.90
17381;DHT22;8808;52.478;13.378;2023-09-30T00:41:03;19.10;99.90
17381;DHT22;8808;52.478;13.378;2023-09-30T00:43:32;18.80;99.90
17381;DHT22;8808;52.478;13.378;2023-09-30T00:46:04;18.60;99.90
17381;DHT22;8808;52.478;13.378;2023-09-30T00:48:33;19.30;99.90
17381;DHT22;8808;52.478;13.378;2023-09-30T00:51:00;19.20;99.90
17381;DHT22;8808;52.478;13.378;2023-09-30T00:53:28;19.00;99.90
17381;DHT22;8808;52.478;13.378;2023-09-30T00:55:56;18.30;99.90
17381;DHT22;8808;52.478;13.378;2023-09-30T00:58:24;18.70;99.90
17381;DHT22;8808;52.478;13.378;2023-09-30T01:03:32;19.10;99.90
17381;DHT22;8808;52.478;13.378;2023-09-30T01:06:00;19.30;99.90
17381;DHT22;8808;52.478;13.378;2023-09-30T01:08:27;19.90;99.90
17381;DHT22;8808;52.478;13.378;2023-09-30T01:10:54;19.30;99.90
17381;DHT22;8808;52.478;13.378;2023-09-30T01:13:22;18.40;99.90
17381;DHT22;8808;52.478;13.378;2023-09-30T01:15:49;19.00;99.90
17381;DHT22;8808;52.478;13.378;2023-09-30T01:18:16;18.90;99.90
17381;DHT22;8808;52.478;13.378;2023-09-30T01:20:44;18.30;99.90
17381;DHT22;8808;52.478;13.378;2023-09-30T01:23:13;17.60;99.90
17381;DHT22;8808;52.478;13.378;2023-09-30T01:25:40;17.70;99.90
17381;DHT22;8808;52.478;13.378;2023-09-30T01:28:09;17.50;99.90
17381;DHT22;8808;52.478;13.378;2023-09-30T01:30:36;18.00;99.90
17381;DHT22;8808;52.478;13.378;2023-09-30T01:33:05;19.00;99.90
17381;DHT22;8808;52.478;13.378;2023-09-30T01:35:33;18.00;99.90
17381;DHT22;8808;52.478;13.378;2023-09-30T01:38:00;17.30;99.90
17381;DHT22;8808;52.478;13.378;2023-09-30T01:40:28;19.00;99.90
17381;DHT22;8808;52.478;13.378;2023-09-30T01:42:56;18.90;99.90
17381;DHT22;8808;52.478;13.378;2023-09-30T01:45:23;17.60;99.90
17381;DHT22;8808;52.478;13.378;2023-09-30T01:47:50;17.00;99.90
17381;DHT22;8808;52.478;13.378;2023-09-30T01:50:17;17.10;99.90
17381;DHT22;8808;52.478;13.378;2023-09-30T01:52:44;16.90;99.90
17381;DHT22;8808;52.478;13.378;2023-09-30T01:55:11;16.90;99.90
17381;DHT22;8808;52.478;13.378;2023-09-30T02:00:07;16.60;99.90
17381;DHT22;8808;52.478;13.378;2023-09-30T02:02:35;16.70;99.90
17381;DHT22;8808;52.478;13.378;2023-09-30T02:05:03;17.90;99.90
17381;DHT22;8808;52.478;13.378;2023-09-30T02:07:30;16.90;99.90
17381;DHT22;8808;52.478;13.378;2023-09-30T02:09:57;16.70;99.90
17381;DHT22;8808;52.478;13.378;2023-09-30T02:12:26;16.00;99.90
17381;DHT22;8808;52.478;13.378;2023-09-30T02:14:55;16.10;99.90
17381;DHT22;8808;52.478;13.378;2023-09-30T02:17:22;15.90;99.90
17381;DHT22;8808;52.478;13.378;2023-09-30T02:19:49;15.80;99.90
17381;DHT22;8808;52.478;13.378;2023-09-30T02:22:16;15.80;99.90
17381;DHT22;8808;52.478;13.378;2023-09-30T02:24:43;15.80;99.90
17381;DHT22;8808;52.478;13.378;2023-09-30T02:27:10;15.90;99.90
17381;DHT22;8808;52.478;13.378;2023-09-30T02:29:37;15.70;99.90
17381;DHT22;8808;52.478;13.378;2023-09-30T02:32:06;15.60;99.90
17381;DHT22;8808;52.478;13.378;2023-09-30T02:34:32;15.60;99.90
17381;DHT22;8808;52.478;13.378;2023-09-30T02:37:01;15.40;99.90
17381;DHT22;8808;52.478;13.378;2023-09-30T02:39:28;15.40;99.90
17381;DHT22;8808;52.478;13.378;2023-09-30T02:41:55;15.40;99.90
17381;DHT22;8808;52.478;13.378;2023-09-30T02:44:22;15.40;99.90
17381;DHT22;8808;52.478;13.378;2023-09-30T02:46:49;15.40;99.90
17381;DHT22;8808;52.478;13.378;2023-09-30T02:49:17;15.40;99.90
17381;DHT22;8808;52.478;13.378;2023-09-30T02:51:44;15.40;99.90
17381;DHT22;8808;52.478;13.378;2023-09-30T02:54:11;15.30;99.90
17381;DHT22;8808;52.478;13.378;2023-09-30T02:56:41;15.40;99.90
17381;DHT22;8808;52.478;13.378;2023-09-30T02:59:08;15.50;99.90
17381;DHT22;8808;52.478;13.378;2023-09-30T03:01:35;15.40;99.90
17381;DHT22;8808;52.478;13.378;2023-09-30T03:04:03;15.30;99.90
17381;DHT22;8808;52.478;13.378;2023-09-30T03:06:33;15.40;99.90
17381;DHT22;8808;52.478;13.378;2023-09-30T03:09:02;15.20;99.90
17381;DHT22;8808;52.478;13.378;2023-09-30T03:11:30;15.30;99.90
17381;DHT22;8808;52.478;13.378;2023-09-30T03:13:57;15.40;99.90
17381;DHT22;8808;52.478;13.378;2023-09-30T03:16:24;15.30;99.90
17381;DHT22;8808;52.478;13.378;2023-09-30T03:18:51;15.30;99.90
17381;DHT22;8808;52.478;13.378;2023-09-30T03:21:18;15.30;99.90
17381;DHT22;8808;52.478;13.378;2023-09-30T03:23:46;15.10;99.90
17381;DHT22;8808;52.478;13.378;2023-09-30T03:26:13;15.20;99.90
17381;DHT22;8808;52.478;13.378;2023-09-30T03:28:41;15.10;99.90
17381;DHT22;8808;52.478;13.378;2023-09-30T03:31:08;15.10;99.90
17381;DHT22;8808;52.478;13.378;2023-09-30T03:33:37;15.10;99.90
17381;DHT22;8808;52.478;13.378;2023-09-30T03:36:07;15.10;99.90
17381;DHT22;8808;52.478;13.378;2023-09-30T03:38:34;15.10;99.90
17381;DHT22;8808;52.478;13.378;2023-09-30T03:41:03;15.10;99.90
17381;DHT22;8808;52.478;13.378;2023-09-30T03:43:33;15.10;99.90
17381;DHT22;8808;52.478;13.378;2023-09-30T03:46:02;15.00;99.90
17381;DHT22;8808;52.478;13.378;2023-09-30T03:48:29;14.90;99.90
17381;DHT22;8808;52.478;13.378;2023-09-30T03:50:57;14.90;99.90
17381;DHT22;8808;52.478;13.378;2023-09-30T03:53:24;14.80;99.90
17381;DHT22;8808;52.478;13.378;2023-09-30T03:55:52;14.80;99.90
17381;DHT22;8808;52.478;13.378;2023-09-30T03:58:20;14.90;99.90
17381;DHT22;8808;52.478;13.378;2023-09-30T04:00:47;14.80;99.90
17381;DHT22;8808;52.478;13.378;2023-09-30T04:03:15;14.80;99.90
17381;DHT22;8808;52.478;13.378;2023-09-30T04:05:42;14.80;99.90
17381;DHT22;8808;52.478;13.378;2023-09-30T04:08:09;14.80;99.90
17381;DHT22;8808;52.478;13.378;2023-09-30T04:10:36;14.70;99.90
17381;DHT22;8808;52.478;13.378;2023-09-30T04:13:03;14.70;99.90
17381;DHT22;8808;52.478;13.378;2023-09-30T04:15:32;14.70;99.90
17381;DHT22;8808;52.478;13.378;2023-09-30T04:18:00;14.70;99.90
17381;DHT22;8808;52.478;13.378;2023-09-30T04:20:28;14.60;99.90
17381;DHT22;8808;52.478;13.378;2023-09-30T04:22:55;14.60;99.90
17381;DHT22;8808;52.478;13.378;2023-09-30T04:25:23;14.70;99.90
17381;DHT22;8808;52.478;13.378;2023-09-30T04:27:51;14.70;99.90
17381;DHT22;8808;52.478;13.378;2023-09-30T04:30:18;14.70;99.90
17381;DHT22;8808;52.478;13.378;2023-09-30T05:19:54;14.20;99.90
17381;DHT22;8808;52.478;13.378;2023-09-30T05:22:21;14.20;99.90
17381;DHT22;8808;52.478;13.378;2023-09-30T05:24:51;14.20;99.90
17381;DHT22;8808;52.478;13.378;2023-09-30T05:27:18;14.10;99.90
17381;DHT22;8808;52.478;13.378;2023-09-30T05:29:46;14.20;99.90
17381;DHT22;8808;52.478;13.378;2023-09-30T05:32:14;14.20;99.90
17381;DHT22;8808;52.478;13.378;2023-09-30T05:34:41;14.20;99.90
17381;DHT22;8808;52.478;13.378;2023-09-30T05:37:09;14.30;99.90
17381;DHT22;8808;52.478;13.378;2023-09-30T05:39:37;14.30;99.90
17381;DHT22;8808;52.478;13.378;2023-09-30T05:42:06;14.30;99.90
17381;DHT22;8808;52.478;13.378;2023-09-30T05:44:33;14.30;99.90
17381;DHT22;8808;52.478;13.378;2023-09-30T05:47:00;14.40;99.90
17381;DHT22;8808;52.478;13.378;2023-09-30T05:49:27;14.40;99.90
17381;DHT22;8808;52.478;13.378;2023-09-30T05:51:54;14.40;99.90
17381;DHT22;8808;52.478;13.378;2023-09-30T05:54:21;14.40;99.90
17381;DHT22;8808;52.478;13.378;2023-09-30T05:56:48;14.50;99.90
17381;DHT22;8808;52.478;13.378;2023-09-30T05:59:17;14.50;99.90
17381;DHT22;8808;52.478;13.378;2023-09-30T06:01:43;14.60;99.90
17381;DHT22;8808;52.478;13.378;2023-09-30T06:04:11;14.60;99.90
17381;DHT22;8808;52.478;13.378;2023-09-30T06:06:39;14.70;99.90
17381;DHT22;8808;52.478;13.378;2023-09-30T06:09:06;14.70;99.90
17381;DHT22;8808;52.478;13.378;2023-09-30T06:11:34;14.80;99.90
17381;DHT22;8808;52.478;13.378;2023-09-30T06:14:02;14.90;99.90
17381;DHT22;8808;52.478;13.378;2023-09-30T06:16:33;15.00;99.90
17381;DHT22;8808;52.478;13.378;2023-09-30T06:19:00;15.10;99.90
17381;DHT22;8808;52.478;13.378;2023-09-30T06:21:28;15.10;99.90
17381;DHT22;8808;52.478;13.378;2023-09-30T06:23:56;15.20;99.90
17381;DHT22;8808;52.478;13.378;2023-09-30T06:26:22;15.10;99.90
17381;DHT22;8808;52.478;13.378;2023-09-30T06:28:51;15.20;99.90
17381;DHT22;8808;52.478;13.378;2023-09-30T06:31:20;15.10;99.90
17381;DHT22;8808;52.478;13.378;2023-09-30T06:33:50;15.10;99.90
17381;DHT22;8808;52.478;13.378;2023-09-30T06:36:16;15.00;99.90
17381;DHT22;8808;52.478;13.378;2023-09-30T06:38:44;14.90;99.90
17381;DHT22;8808;52.478;13.378;2023-09-30T06:41:16;15.00;99.90
17381;DHT22;8808;52.478;13.378;2023-09-30T06:43:43;15.00;99.90
17381;DHT22;8808;52.478;13.378;2023-09-30T06:46:10;15.10;99.90
17381;DHT22;8808;52.478;13.378;2023-09-30T06:48:39;15.10;99.90
17381;DHT22;8808;52.478;13.378;2023-09-30T06:51:12;15.10;99.90
17381;DHT22;8808;52.478;13.378;2023-09-30T06:53:39;15.10;99.90
17381;DHT22;8808;52.478;13.378;2023-09-30T06:56:06;15.40;99.90
17381;DHT22;8808;52.478;13.378;2023-09-30T06:58:33;15.20;99.90
17381;DHT22;8808;52.478;13.378;2023-09-30T07:01:00;15.20;99.90
17381;DHT22;8808;52.478;13.378;2023-09-30T07:03:27;15.10;99.90
17381;DHT22;8808;52.478;13.378;2023-09-30T07:05:56;15.30;99.90
17381;DHT22;8808;52.478;13.378;2023-09-30T07:08:27;15.30;99.90
17381;DHT22;8808;52.478;13.378;2023-09-30T07:10:55;15.30;99.90
17381;DHT22;8808;52.478;13.378;2023-09-30T07:13:22;15.30;99.90
17381;DHT22;8808;52.478;13.378;2023-09-30T07:15:49;15.40;99.90
17381;DHT22;8808;52.478;13.378;2023-09-30T07:18:16;15.80;99.90
17381;DHT22;8808;52.478;13.378;2023-09-30T07:20:43;16.20;99.90
17381;DHT22;8808;52.478;13.378;2023-09-30T07:23:10;16.40;99.90
17381;DHT22;8808;52.478;13.378;2023-09-30T07:25:40;15.80;99.90
17381;DHT22;8808;52.478;13.378;2023-09-30T07:28:08;15.50;99.90
17381;DHT22;8808;52.478;13.378;2023-09-30T07:30:37;15.60;99.90
17381;DHT22;8808;52.478;13.378;2023-09-30T07:33:05;15.60;99.90
17381;DHT22;8808;52.478;13.378;2023-09-30T07:35:32;15.50;99.90
17381;DHT22;8808;52.478;13.378;2023-09-30T07:38:00;15.50;99.90
17381;DHT22;8808;52.478;13.378;2023-09-30T07:40:27;15.60;99.90
17381;DHT22;8808;52.478;13.378;2023-09-30T07:42:56;15.70;99.90
17381;DHT22;8808;52.478;13.378;2023-09-30T07:45:23;15.80;99.90
17381;DHT22;8808;52.478;13.378;2023-09-30T07:47:50;15.80;99.90
17381;DHT22;8808;52.478;13.378;2023-09-30T07:50:17;16.10;99.90
17381;DHT22;8808;52.478;13.378;2023-09-30T07:52:44;15.90;99.90
17381;DHT22;8808;52.478;13.378;2023-09-30T07:55:12;15.90;99.90
17381;DHT22;8808;52.478;13.378;2023-09-30T07:57:40;15.80;99.90
17381;DHT22;8808;52.478;13.378;2023-09-30T08:00:10;15.70;99.90
17381;DHT22;8808;52.478;13.378;2023-09-30T08:02:41;15.70;99.90
17381;DHT22;8808;52.478;13.378;2023-09-30T08:05:08;15.80;99.90
17381;DHT22;8808;52.478;13.378;2023-09-30T08:07:36;15.70;99.90
17381;DHT22;8808;52.478;13.378;2023-09-30T08:10:03;15.80;99.90
17381;DHT22;8808;52.478;13.378;2023-09-30T08:12:32;15.80;99.90
17381;DHT22;8808;52.478;13.378;2023-09-30T08:14:59;15.80;99.90
17381;DHT22;8808;52.478;13.378;2023-09-30T08:17:30;15.80;99.90
17381;DHT22;8808;52.478;13.378;2023-09-30T08:19:57;15.80;99.90
17381;DHT22;8808;52.478;13.378;2023-09-30T08:22:24;16.10;99.90
17381;DHT22;8808;52.478;13.378;2023-09-30T08:24:53;16.10;99.90
17381;DHT22;8808;52.478;13.378;2023-09-30T08:27:20;16.30;99.90
17381;DHT22;8808;52.478;13.378;2023-09-30T08:29:49;16.30;99.90
17381;DHT22;8808;52.478;13.378;2023-09-30T08:32:16;16.40;99.90
17381;DHT22;8808;52.478;13.378;2023-09-30T08:34:44;17.20;99.90
17381;DHT22;8808;52.478;13.378;2023-09-30T08:37:11;17.00;99.90
17381;DHT22;8808;52.478;13.378;2023-09-30T08:39:38;16.80;99.90
17381;DHT22;8808;52.478;13.378;2023-09-30T08:42:09;17.20;99.90
17381;DHT22;8808;52.478;13.378;2023-09-30T08:44:37;17.00;99.90
17381;DHT22;8808;52.478;13.378;2023-09-30T08:47:05;16.80;99.90
17381;DHT22;8808;52.478;13.378;2023-09-30T08:49:34;16.80;99.90
17381;DHT22;8808;52.478;13.378;2023-09-30T08:52:05;17.20;99.90
17381;DHT22;8808;52.478;13.378;2023-09-30T08:54:32;17.50;99.90
17381;DHT22;8808;52.478;13.378;2023-09-30T08:57:00;17.00;99.90
17381;DHT22;8808;52.478;13.378;2023-09-30T08:59:29;17.00;99.90
17381;DHT22;8808;52.478;13.378;2023-09-30T09:01:57;17.10;99.90
17381;DHT22;8808;52.478;13.378;2023-09-30T09:04:24;16.90;99.90
17381;DHT22;8808;52.478;13.378;2023-09-30T09:06:53;17.60;99.90
17381;DHT22;8808;52.478;13.378;2023-09-30T09:09:22;17.20;99.90
17381;DHT22;8808;52.478;13.378;2023-09-30T09:11:50;17.10;99.90
17381;DHT22;8808;52.478;13.378;2023-09-30T09:14:18;17.60;99.90
17381;DHT22;8808;52.478;13.378;2023-09-30T09:16:52;17.80;99.90
17381;DHT22;8808;52.478;13.378;2023-09-30T09:19:19;17.50;99.90
17381;DHT22;8808;52.478;13.378;2023-09-30T09:21:58;17.90;99.90
17381;DHT22;8808;52.478;13.378;2023-09-30T09:24:30;17.70;99.90
17381;DHT22;8808;52.478;13.378;2023-09-30T09:27:10;17.70;99.90
17381;DHT22;8808;52.478;13.378;2023-09-30T09:29:38;17.80;99.90
17381;DHT22;8808;52.478;13.378;2023-09-30T09:32:13;17.90;99.90
17381;DHT22;8808;52.478;13.378;2023-09-30T09:34:40;17.90;99.90
17381;DHT22;8808;52.478;13.378;2023-09-30T09:37:16;18.60;99.90
17381;DHT22;8808;52.478;13.378;2023-09-30T09:39:51;18.50;99.90
17381;DHT22;8808;52.478;13.378;2023-09-30T09:42:25;18.20;99.90
17381;DHT22;8808;52.478;13.378;2023-09-30T09:44:54;18.40;99.90
17381;DHT22;8808;52.478;13.378;2023-09-30T09:47:22;18.60;99.90
17381;DHT22;8808;52.478;13.378;2023-09-30T09:59:43;19.80;99.90
17381;DHT22;8808;52.478;13.378;2023-09-30T10:02:13;19.40;99.90
17381;DHT22;8808;52.478;13.378;2023-09-30T10:04:41;20.50;99.90
17381;DHT22;8808;52.478;13.378;2023-09-30T10:07:12;20.10;99.90
17381;DHT22;8808;52.478;13.378;2023-09-30T10:09:44;19.80;99.90
17381;DHT22;8808;52.478;13.378;2023-09-30T10:12:13;19.60;99.90
17381;DHT22;8808;52.478;13.378;2023-09-30T10:14:41;19.30;99.90
17381;DHT22;8808;52.478;13.378;2023-09-30T10:17:09;19.10;99.90
17381;DHT22;8808;52.478;13.378;2023-09-30T10:19:36;19.10;99.90
17381;DHT22;8808;52.478;13.378;2023-09-30T10:22:23;19.20;99.90
17381;DHT22;8808;52.478;13.378;2023-09-30T10:24:53;19.20;99.90
17381;DHT22;8808;52.478;13.378;2023-09-30T10:27:45;19.30;99.90
17381;DHT22;8808;52.478;13.378;2023-09-30T10:30:13;19.50;99.90
17381;DHT22;8808;52.478;13.378;2023-09-30T10:33:12;19.70;99.90
17381;DHT22;8808;52.478;13.378;2023-09-30T10:35:50;19.80;99.90
17381;DHT22;8808;52.478;13.378;2023-09-30T10:38:36;20.10;99.90
17381;DHT22;8808;52.478;13.378;2023-09-30T10:41:03;20.60;99.90
17381;DHT22;8808;52.478;13.378;2023-09-30T10:43:33;20.90;99.90
17381;DHT22;8808;52.478;13.378;2023-09-30T10:46:01;21.70;99.90
17381;DHT22;8808;52.478;13.378;2023-09-30T10:48:35;22.10;99.90
17381;DHT22;8808;52.478;13.378;2023-09-30T10:51:09;21.90;99.90
17381;DHT22;8808;52.478;13.378;2023-09-30T10:53:45;21.50;99.90
17381;DHT22;8808;52.478;13.378;2023-09-30T10:56:13;21.20;99.90
17381;DHT22;8808;52.478;13.378;2023-09-30T10:58:43;21.10;99.90
17381;DHT22;8808;52.478;13.378;2023-09-30T11:01:11;21.60;99.90
17381;DHT22;8808;52.478;13.378;2023-09-30T11:03:39;21.50;99.90
17381;DHT22;8808;52.478;13.378;2023-09-30T11:06:06;20.30;99.90
17381;DHT22;8808;52.478;13.378;2023-09-30T11:08:34;20.60;99.90
17381;DHT22;8808;52.478;13.378;2023-09-30T11:11:02;20.80;99.90
17381;DHT22;8808;52.478;13.378;2023-09-30T11:13:32;21.00;99.90
17381;DHT22;8808;52.478;13.378;2023-09-30T11:16:03;21.20;99.90
17381;DHT22;8808;52.478;13.378;2023-09-30T11:18:31;21.10;99.90
17381;DHT22;8808;52.478;13.378;2023-09-30T11:21:06;20.20;99.90
17381;DHT22;8808;52.478;13.378;2023-09-30T11:23:35;20.30;99.90
17381;DHT22;8808;52.478;13.378;2023-09-30T11:26:02;20.10;99.90
17381;DHT22;8808;52.478;13.378;2023-09-30T11:28:38;19.90;99.90
17381;DHT22;8808;52.478;13.378;2023-09-30T11:31:08;20.10;99.90
17381;DHT22;8808;52.478;13.378;2023-09-30T11:33:50;21.20;99.90
17381;DHT22;8808;52.478;13.378;2023-09-30T11:36:18;20.50;99.90
17381;DHT22;8808;52.478;13.378;2023-09-30T11:38:47;20.50;99.90
17381;DHT22;8808;52.478;13.378;2023-09-30T11:41:15;20.20;99.90
17381;DHT22;8808;52.478;13.378;2023-09-30T11:43:58;20.30;99.90
17381;DHT22;8808;52.478;13.378;2023-09-30T11:46:28;20.20;99.90
17381;DHT22;8808;52.478;13.378;2023-09-30T11:49:00;20.80;99.90
17381;DHT22;8808;52.478;13.378;2023-09-30T11:51:27;20.00;99.90
17381;DHT22;8808;52.478;13.378;2023-09-30T11:53:55;19.90;99.90
17381;DHT22;8808;52.478;13.378;2023-09-30T11:56:23;19.60;99.90
17381;DHT22;8808;52.478;13.378;2023-09-30T11:58:55;20.00;99.90
17381;DHT22;8808;52.478;13.378;2023-09-30T12:01:22;20.70;99.90
17381;DHT22;8808;52.478;13.378;2023-09-30T12:03:52;20.30;99.90
17381;DHT22;8808;52.478;13.378;2023-09-30T12:06:21;19.90;99.90
17381;DHT22;8808;52.478;13.378;2023-09-30T12:08:48;19.90;99.90
17381;DHT22;8808;52.478;13.378;2023-09-30T12:11:17;20.00;99.90
17381;DHT22;8808;52.478;13.378;2023-09-30T12:13:44;20.50;99.90
17381;DHT22;8808;52.478;13.378;2023-09-30T12:16:14;21.70;99.90
17381;DHT22;8808;52.478;13.378;2023-09-30T12:18:41;20.40;99.90
17381;DHT22;8808;52.478;13.378;2023-09-30T12:21:10;20.10;99.90
17381;DHT22;8808;52.478;13.378;2023-09-30T12:23:38;20.90;99.90
17381;DHT22;8808;52.478;13.378;2023-09-30T12:26:05;20.30;99.90
17381;DHT22;8808;52.478;13.378;2023-09-30T12:28:32;20.40;99.90
17381;DHT22;8808;52.478;13.378;2023-09-30T12:30:59;21.00;99.90
17381;DHT22;8808;52.478;13.378;2023-09-30T12:33:28;21.50;99.90
17381;DHT22;8808;52.478;13.378;2023-09-30T12:35:55;21.30;99.90
17381;DHT22;8808;52.478;13.378;2023-09-30T12:38:25;20.80;99.90
17381;DHT22;8808;52.478;13.378;2023-09-30T12:40:53;21.00;99.90
17381;DHT22;8808;52.478;13.378;2023-09-30T12:43:21;21.00;99.90
17381;DHT22;8808;52.478;13.378;2023-09-30T12:45:48;20.60;99.90
17381;DHT22;8808;52.478;13.378;2023-09-30T12:48:15;20.30;99.90
17381;DHT22;8808;52.478;13.378;2023-09-30T12:50:43;20.50;99.90
17381;DHT22;8808;52.478;13.378;2023-09-30T12:53:10;20.30;99.90
17381;DHT22;8808;52.478;13.378;2023-09-30T12:55:38;20.80;99.90
17381;DHT22;8808;52.478;13.378;2023-09-30T12:58:05;20.40;99.90
17381;DHT22;8808;52.478;13.378;2023-09-30T13:00:34;20.90;99.90
17381;DHT22;8808;52.478;13.378;2023-09-30T13:03:01;20.40;99.90
17381;DHT22;8808;52.478;13.378;2023-09-30T13:05:28;21.00;99.90
17381;DHT22;8808;52.478;13.378;2023-09-30T13:07:56;20.40;99.90
17381;DHT22;8808;52.478;13.378;2023-09-30T13:10:23;20.60;99.90
17381;DHT22;8808;52.478;13.378;2023-09-30T13:12:52;20.60;99.90
17381;DHT22;8808;52.478;13.378;2023-09-30T13:15:19;20.50;99.90
17381;DHT22;8808;52.478;13.378;2023-09-30T13:17:50;21.10;99.90
17381;DHT22;8808;52.478;13.378;2023-09-30T13:20:17;20.90;99.90
17381;DHT22;8808;52.478;13.378;2023-09-30T13:22:44;21.40;99.90
17381;DHT22;8808;52.478;13.378;2023-09-30T13:25:11;21.20;99.90
17381;DHT22;8808;52.478;13.378;2023-09-30T13:27:39;20.70;99.90
17381;DHT22;8808;52.478;13.378;2023-09-30T13:30:08;21.80;99.90
17381;DHT22;8808;52.478;13.378;2023-09-30T13:32:36;21.80;99.90
17381;DHT22;8808;52.478;13.378;2023-09-30T13:35:03;21.70;99.90
17381;DHT22;8808;52.478;13.378;2023-09-30T13:37:31;21.60;99.90
17381;DHT22;8808;52.478;13.378;2023-09-30T13:39:59;21.90;99.90
17381;DHT22;8808;52.478;13.378;2023-09-30T13:42:26;20.80;99.90
17381;DHT22;8808;52.478;13.378;2023-09-30T13:44:54;21.20;99.90
17381;DHT22;8808;52.478;13.378;2023-09-30T13:47:24;21.80;99.90
17381;DHT22;8808;52.478;13.378;2023-09-30T13:49:52;21.90;99.90
17381;DHT22;8808;52.478;13.378;2023-09-30T13:52:20;21.70;99.90
17381;DHT22;8808;52.478;13.378;2023-09-30T13:54:47;21.40;99.90
17381;DHT22;8808;52.478;13.378;2023-09-30T13:57:14;21.30;99.90
17381;DHT22;8808;52.478;13.378;2023-09-30T13:59:41;21.10;99.90
17381;DHT22;8808;52.478;13.378;2023-09-30T14:02:09;20.90;99.90
17381;DHT22;8808;52.478;13.378;2023-09-30T14:04:37;21.00;99.90
17381;DHT22;8808;52.478;13.378;2023-09-30T14:07:04;21.20;99.90
17381;DHT22;8808;52.478;13.378;2023-09-30T14:09:33;20.30;99.90
17381;DHT22;8808;52.478;13.378;2023-09-30T14:12:00;21.40;99.90
17381;DHT22;8808;52.478;13.378;2023-09-30T14:14:31;21.40;99.90
17381;DHT22;8808;52.478;13.378;2023-09-30T14:16:58;21.30;99.90
17381;DHT22;8808;52.478;13.378;2023-09-30T14:19:25;20.80;99.90
17381;DHT22;8808;52.478;13.378;2023-09-30T14:21:55;20.80;99.90
17381;DHT22;8808;52.478;13.378;2023-09-30T14:24:23;20.30;99.90
17381;DHT22;8808;52.478;13.378;2023-09-30T14:26:50;20.50;99.90
17381;DHT22;8808;52.478;13.378;2023-09-30T14:29:17;21.10;99.90
17381;DHT22;8808;52.478;13.378;2023-09-30T14:31:44;21.50;99.90
17381;DHT22;8808;52.478;13.378;2023-09-30T14:34:12;21.20;99.90
17381;DHT22;8808;52.478;13.378;2023-09-30T14:36:40;20.80;99.90
17381;DHT22;8808;52.478;13.378;2023-09-30T14:39:09;21.20;99.90
17381;DHT22;8808;52.478;13.378;2023-09-30T14:41:36;20.30;99.90
17381;DHT22;8808;52.478;13.378;2023-09-30T14:44:04;20.00;99.90
17381;DHT22;8808;52.478;13.378;2023-09-30T14:46:33;20.40;99.90
17381;DHT22;8808;52.478;13.378;2023-09-30T14:49:00;20.80;99.90
17381;DHT22;8808;52.478;13.378;2023-09-30T14:51:27;20.70;99.90
17381;DHT22;8808;52.478;13.378;2023-09-30T14:53:54;20.70;99.90
17381;DHT22;8808;52.478;13.378;2023-09-30T14:56:22;20.40;99.90
17381;DHT22;8808;52.478;13.378;2023-09-30T14:58:49;19.90;99.90
17381;DHT22;8808;52.478;13.378;2023-09-30T15:01:16;19.60;99.90
17381;DHT22;8808;52.478;13.378;2023-09-30T15:03:45;19.30;99.90
17381;DHT22;8808;52.478;13.378;2023-09-30T15:06:12;19.30;99.90
17381;DHT22;8808;52.478;13.378;2023-09-30T15:08:39;20.00;99.90
17381;DHT22;8808;52.478;13.378;2023-09-30T15:11:12;19.80;99.90
17381;DHT22;8808;52.478;13.378;2023-09-30T15:13:42;19.50;99.90
17381;DHT22;8808;52.478;13.378;2023-09-30T15:16:15;19.30;99.90
17381;DHT22;8808;52.478;13.378;2023-09-30T15:18:42;19.80;99.90
17381;DHT22;8808;52.478;13.378;2023-09-30T15:21:09;19.70;99.90
17381;DHT22;8808;52.478;13.378;2023-09-30T15:23:36;19.40;99.90
17381;DHT22;8808;52.478;13.378;2023-09-30T15:26:03;19.60;99.90
17381;DHT22;8808;52.478;13.378;2023-09-30T15:28:31;19.20;99.90
17381;DHT22;8808;52.478;13.378;2023-09-30T15:31:00;19.20;99.90
17381;DHT22;8808;52.478;13.378;2023-09-30T15:33:28;19.10;99.90
17381;DHT22;8808;52.478;13.378;2023-09-30T15:35:55;19.50;99.90
17381;DHT22;8808;52.478;13.378;2023-09-30T15:38:22;19.20;99.90
17381;DHT22;8808;52.478;13.378;2023-09-30T15:40:53;18.90;99.90
17381;DHT22;8808;52.478;13.378;2023-09-30T15:43:21;18.90;99.90
17381;DHT22;8808;52.478;13.378;2023-09-30T15:45:49;19.30;99.90
17381;DHT22;8808;52.478;13.378;2023-09-30T15:48:17;19.30;99.90
17381;DHT22;8808;52.478;13.378;2023-09-30T15:50:45;19.00;99.90
17381;DHT22;8808;52.478;13.378;2023-09-30T15:53:13;18.80;99.90
17381;DHT22;8808;52.478;13.378;2023-09-30T15:55:40;18.60;99.90
17381;DHT22;8808;52.478;13.378;2023-09-30T15:58:07;18.70;99.90
17381;DHT22;8808;52.478;13.378;2023-09-30T16:00:35;18.80;99.90
17381;DHT22;8808;52.478;13.378;2023-09-30T16:03:04;18.70;99.90
17381;DHT22;8808;52.478;13.378;2023-09-30T16:05:34;18.60;99.90
17381;DHT22;8808;52.478;13.378;2023-09-30T16:08:02;18.60;99.90
17381;DHT22;8808;52.478;13.378;2023-09-30T16:10:30;18.40;99.90
17381;DHT22;8808;52.478;13.378;2023-09-30T16:12:57;18.20;99.90
17381;DHT22;8808;52.478;13.378;2023-09-30T16:15:25;18.20;99.90
17381;DHT22;8808;52.478;13.378;2023-09-30T16:17:52;18.10;99.90
17381;DHT22;8808;52.478;13.378;2023-09-30T16:20:20;18.30;99.90
17381;DHT22;8808;52.478;13.378;2023-09-30T16:22:52;18.70;99.90
17381;DHT22;8808;52.478;13.378;2023-09-30T16:25:20;18.40;99.90
17381;DHT22;8808;52.478;13.378;2023-09-30T16:27:47;18.20;99.90
17381;DHT22;8808;52.478;13.378;2023-09-30T16:30:14;18.10;99.90
17381;DHT22;8808;52.478;13.378;2023-09-30T16:32:41;17.80;99.90
17381;DHT22;8808;52.478;13.378;2023-09-30T16:35:08;17.80;99.90
17381;DHT22;8808;52.478;13.378;2023-09-30T16:37:36;17.90;99.90
17381;DHT22;8808;52.478;13.378;2023-09-30T16:40:05;17.90;99.90